Time;durP1;ratioP1;P1;durP2;ratioP2;P2;SDS_P1;SDS_P2;PMS_P1;PMS_P2;Temp;Humidity;BMP_temperature;BMP_pressure;BME280_temperature;BME280_humidity;BME280_pressure;Samples;Min_cycle;Max_cycle;Signal;HPM_P1;HPM_P2
2022/07/01 00:00:19;;;;;;;;;;;31.40;45.00;;;;;;680356;29;1284;-89
2022/07/01 00:00:39;;;;;;;;;;;31.40;45.00;;;;;;680779;29;1289;-88
2022/07/01 00:01:00;;;;;;;;;;;31.40;45.40;;;;;;678117;29;1415;-88
2022/07/01 00:01:20;;;;;;;;;;;31.40;45.20;;;;;;675827;29;1413;-90
2022/07/01 00:01:41;;;;;;;;;;;31.40;46.10;;;;;;675766;29;1255;-90
2022/07/01 00:02:02;;;;;;;;;;;31.40;45.00;;;;;;678313;29;1238;-89
2022/07/01 00:02:23;;;;;;;;;;;31.40;45.50;;;;;;681066;29;1365;-89
2022/07/01 00:02:43;;;;;;;;;;;31.40;45.70;;;;;;683469;28;922;-88
2022/07/01 00:03:04;;;;;;;;;;;31.40;46.10;;;;;;683792;28;1292;-87
2022/07/01 00:03:24;;;;;;;;;;;31.40;45.80;;;;;;686058;28;1294;-87
2022/07/01 00:03:51;;;;;;;;;;;31.40;45.90;;;;;;685752;28;1328;-91
2022/07/01 00:04:12;;;;;;;;;;;31.40;45.60;;;;;;686064;28;1349;-89
2022/07/01 00:04:32;;;;;;;;;;;31.40;45.30;;;;;;683129;28;1232;-90
2022/07/01 00:04:53;;;;;;;;;;;31.40;45.20;;;;;;685904;28;1525;-89
2022/07/01 00:05:13;;;;;;;;;;;31.40;45.50;;;;;;686005;28;1327;-89
2022/07/01 00:05:34;;;;;;;;;;;31.40;45.50;;;;;;686098;28;1496;-89
2022/07/01 00:05:54;;;;;;;;;;;31.40;45.50;;;;;;686045;28;902;-90
2022/07/01 00:06:16;;;;;;;;;;;31.40;45.20;;;;;;683656;28;1331;-89
2022/07/01 00:06:36;;;;;;;;;;;31.30;45.10;;;;;;685712;28;1241;-90
2022/07/01 00:06:57;;;;;;;;;;;31.40;45.20;;;;;;685989;28;1218;-88
2022/07/01 00:07:18;;;;;;;;;;;31.40;45.20;;;;;;685807;28;1166;-90
2022/07/01 00:07:38;;;;;;;;;;;31.40;45.00;;;;;;685996;28;1346;-87
2022/07/01 00:07:59;;;;;;;;;;;31.40;45.20;;;;;;686356;28;1387;-89
2022/07/01 00:08:20;;;;;;;;;;;32.70;46.30;;;;;;686058;28;1244;-90
2022/07/01 00:08:40;;;;;;;;;;;31.30;45.50;;;;;;683376;28;1258;-90
2022/07/01 00:09:01;;;;;;;;;;;31.40;45.90;;;;;;680525;29;1322;-90
2022/07/01 00:09:21;;;;;;;;;;;31.30;45.50;;;;;;680869;29;1345;-89
2022/07/01 00:09:42;;;;;;;;;;;31.30;45.30;;;;;;683141;28;1276;-89
2022/07/01 00:10:03;;;;;;;;;;;31.30;45.00;;;;;;683603;28;1343;-88
2022/07/01 00:10:24;;;;;;;;;;;31.20;45.50;;;;;;686340;28;1375;-90
2022/07/01 00:10:44;;;;;;;;;;;31.30;46.50;;;;;;686102;28;1204;-89
2022/07/01 00:11:05;;;;;;;;;;;31.40;45.30;;;;;;685965;28;1898;-91
2022/07/01 00:11:25;;;;;;;;;;;31.30;45.20;;;;;;683474;28;1362;-89
2022/07/01 00:11:46;;;;;;;;;;;31.30;45.10;;;;;;683385;28;1214;-91
2022/07/01 00:12:07;;;;;;;;;;;31.40;45.50;;;;;;683355;28;1343;-90
2022/07/01 00:12:27;;;;;;;;;;;31.30;45.40;;;;;;683481;29;776;-89
2022/07/01 00:12:48;;;;;;;;;;;31.40;45.50;;;;;;683747;28;858;-89
2022/07/01 00:13:08;;;;;;;;;;;31.30;45.20;;;;;;683115;28;1209;-90
2022/07/01 00:13:29;;;;;;;;;;;31.30;45.00;;;;;;683430;29;1331;-89
2022/07/01 00:13:50;;;;;;;;;;;31.30;45.00;;;;;;680973;29;1196;-89
2022/07/01 00:14:10;;;;;;;;;;;31.30;45.40;;;;;;683085;28;1387;-90
2022/07/01 00:14:31;;;;;;;;;;;31.30;45.40;;;;;;683441;29;1363;-90
2022/07/01 00:14:52;;;;;;;;;;;31.20;46.10;;;;;;683652;28;1138;-89
2022/07/01 00:15:13;;;;;;;;;;;31.30;45.30;;;;;;686328;28;1227;-89
2022/07/01 00:15:33;;;;;;;;;;;31.30;46.30;;;;;;686473;28;1310;-88
2022/07/01 00:15:54;;;;;;;;;;;31.30;45.60;;;;;;688415;28;1367;-89
2022/07/01 00:16:14;;;;;;;;;;;31.30;45.60;;;;;;686042;28;1380;-89
2022/07/01 00:16:36;;;;;;;;;;;31.30;45.20;;;;;;685816;28;1086;-89
2022/07/01 00:16:56;;;;;;;;;;;31.30;45.10;;;;;;683412;29;1351;-89
2022/07/01 00:17:17;;;;;;;;;;;31.30;45.90;;;;;;680746;28;1261;-90
2022/07/01 00:17:38;;;;;;;;;;;31.30;45.30;;;;;;678456;29;1438;-91
2022/07/01 00:17:58;;;;;;;;;;;31.30;45.20;;;;;;680772;29;981;-89
2022/07/01 00:18:20;;;;;;;;;;;31.30;45.40;;;;;;678523;28;1253;-89
2022/07/01 00:18:41;;;;;;;;;;;30.90;45.90;;;;;;681392;29;1103;-90
2022/07/01 00:19:02;;;;;;;;;;;31.30;45.90;;;;;;681299;29;1055;-90
2022/07/01 00:19:24;;;;;;;;;;;31.20;45.30;;;;;;683957;28;1423;-89
2022/07/01 00:19:45;;;;;;;;;;;31.20;45.70;;;;;;686113;28;1313;-91
2022/07/01 00:20:07;;;;;;;;;;;31.20;45.80;;;;;;687074;28;1090;-89
2022/07/01 00:20:28;;;;;;;;;;;31.20;45.70;;;;;;685122;28;1261;-89
2022/07/01 00:20:48;;;;;;;;;;;31.20;45.60;;;;;;685903;28;1379;-89
2022/07/01 00:21:09;;;;;;;;;;;31.20;45.40;;;;;;685960;28;1416;-89
2022/07/01 00:21:30;;;;;;;;;;;31.20;45.50;;;;;;685500;28;1249;-89
2022/07/01 00:21:51;;;;;;;;;;;31.20;45.90;;;;;;683367;29;1402;-88
2022/07/01 00:22:12;;;;;;;;;;;31.20;45.50;;;;;;680694;29;1451;-89
2022/07/01 00:22:32;;;;;;;;;;;31.20;45.60;;;;;;678348;29;1454;-90
2022/07/01 00:22:53;;;;;;;;;;;31.20;45.60;;;;;;680796;28;1440;-89
2022/07/01 00:23:13;;;;;;;;;;;31.20;45.50;;;;;;678282;29;1386;-89
2022/07/01 00:23:34;;;;;;;;;;;31.20;45.50;;;;;;681067;29;1216;-89
2022/07/01 00:23:55;;;;;;;;;;;31.30;45.90;;;;;;683259;29;756;-89
2022/07/01 00:24:15;;;;;;;;;;;31.20;46.00;;;;;;680771;29;1303;-91
2022/07/01 00:24:36;;;;;;;;;;;31.20;45.90;;;;;;680838;29;1241;-89
2022/07/01 00:24:56;;;;;;;;;;;31.20;45.70;;;;;;683679;28;807;-90
2022/07/01 00:25:17;;;;;;;;;;;31.20;46.10;;;;;;685818;28;1219;-90
2022/07/01 00:25:37;;;;;;;;;;;31.20;46.00;;;;;;683351;29;1139;-89
2022/07/01 00:25:58;;;;;;;;;;;31.20;46.30;;;;;;680505;29;1258;-89
2022/07/01 00:26:18;;;;;;;;;;;31.20;45.80;;;;;;683382;29;1287;-90
2022/07/01 00:26:39;;;;;;;;;;;31.20;45.60;;;;;;683514;29;1201;-90
2022/07/01 00:26:59;;;;;;;;;;;31.20;45.70;;;;;;683211;29;1307;-89
2022/07/01 00:27:21;;;;;;;;;;;31.10;46.90;;;;;;683541;28;1118;-90
2022/07/01 00:27:42;;;;;;;;;;;31.20;46.00;;;;;;685976;28;1267;-89
2022/07/01 00:28:03;;;;;;;;;;;31.20;46.10;;;;;;686070;28;1255;-89
2022/07/01 00:28:23;;;;;;;;;;;31.20;46.00;;;;;;683440;28;1181;-90
2022/07/01 00:28:44;;;;;;;;;;;31.20;45.80;;;;;;683576;28;1383;-88
2022/07/01 00:29:04;;;;;;;;;;;31.20;45.60;;;;;;686180;28;1228;-92
2022/07/01 00:29:25;;;;;;;;;;;31.20;45.90;;;;;;685856;28;1337;-91
2022/07/01 00:29:47;;;;;;;;;;;31.10;47.10;;;;;;685982;28;1598;-90
2022/07/01 00:30:08;;;;;;;;;;;31.10;45.40;;;;;;686215;28;1358;-90
2022/07/01 00:30:29;;;;;;;;;;;31.20;45.90;;;;;;686689;28;1309;-90
2022/07/01 00:30:50;;;;;;;;;;;31.20;45.90;;;;;;685323;28;1902;-88
2022/07/01 00:31:11;;;;;;;;;;;31.20;46.10;;;;;;683386;29;1399;-91
2022/07/01 00:31:31;;;;;;;;;;;31.20;46.00;;;;;;683282;29;1383;-89
2022/07/01 00:31:52;;;;;;;;;;;31.20;47.20;;;;;;680473;29;1249;-89
2022/07/01 00:32:13;;;;;;;;;;;31.10;46.90;;;;;;681086;29;1111;-89
2022/07/01 00:32:34;;;;;;;;;;;31.20;46.80;;;;;;683702;28;1277;-89
2022/07/01 00:32:54;;;;;;;;;;;31.20;46.10;;;;;;683422;28;1401;-91
2022/07/01 00:33:15;;;;;;;;;;;31.10;46.80;;;;;;683291;28;1428;-89
2022/07/01 00:33:35;;;;;;;;;;;31.20;46.60;;;;;;685744;28;1250;-89
2022/07/01 00:33:58;;;;;;;;;;;31.20;46.40;;;;;;686018;28;1392;-90
2022/07/01 00:34:19;;;;;;;;;;;31.20;46.50;;;;;;686026;28;1371;-90
2022/07/01 00:34:39;;;;;;;;;;;31.20;46.60;;;;;;686685;28;1101;-91
2022/07/01 00:35:00;;;;;;;;;;;31.20;46.30;;;;;;685891;28;1201;-91
2022/07/01 00:35:20;;;;;;;;;;;31.20;47.00;;;;;;686008;28;1101;-91
2022/07/01 00:35:41;;;;;;;;;;;31.20;47.50;;;;;;688511;28;1371;-90
2022/07/01 00:36:02;;;;;;;;;;;31.20;47.30;;;;;;685900;28;1239;-92
2022/07/01 00:36:22;;;;;;;;;;;31.20;47.10;;;;;;683366;29;1135;-91
2022/07/01 00:36:43;;;;;;;;;;;31.10;47.00;;;;;;681047;29;1197;-90
2022/07/01 00:37:03;;;;;;;;;;;31.20;48.20;;;;;;680724;28;1196;-90
2022/07/01 00:37:24;;;;;;;;;;;31.10;47.90;;;;;;680792;29;978;-94
2022/07/01 00:37:44;;;;;;;;;;;31.20;46.60;;;;;;681024;28;1344;-88
2022/07/01 00:38:05;;;;;;;;;;;31.20;48.10;;;;;;680836;29;1357;-91
2022/07/01 00:38:26;;;;;;;;;;;31.20;50.20;;;;;;683250;28;1688;-90
2022/07/01 00:38:46;;;;;;;;;;;31.20;50.90;;;;;;683798;28;1398;-90
2022/07/01 00:39:07;;;;;;;;;;;31.20;49.20;;;;;;681911;29;1383;-90
2022/07/01 00:39:30;;;;;;;;;;;31.30;48.60;;;;;;678068;29;1248;-92
2022/07/01 00:39:51;;;;;;;;;;;31.30;48.20;;;;;;678850;29;851;-90
2022/07/01 00:40:12;;;;;;;;;;;31.30;48.90;;;;;;682444;28;1288;-91
2022/07/01 00:40:32;;;;;;;;;;;31.30;48.80;;;;;;683232;28;1388;-91
2022/07/01 00:40:53;;;;;;;;;;;31.30;49.30;;;;;;684107;28;1189;-92
2022/07/01 00:41:14;;;;;;;;;;;31.30;48.80;;;;;;686207;28;1379;-90
2022/07/01 00:41:35;;;;;;;;;;;31.30;49.40;;;;;;684387;28;1192;-92
2022/07/01 00:41:59;;;;;;;;;;;31.30;48.20;;;;;;684201;28;1326;-91
2022/07/01 00:42:20;;;;;;;;;;;31.40;47.50;;;;;;685045;28;1269;-89
2022/07/01 00:42:41;;;;;;;;;;;31.40;50.60;;;;;;688879;28;1243;-90
2022/07/01 00:43:02;;;;;;;;;;;31.40;49.40;;;;;;687921;28;1322;-91
2022/07/01 00:43:24;;;;;;;;;;;31.40;47.60;;;;;;689113;28;1204;-91
2022/07/01 00:43:44;;;;;;;;;;;31.40;48.20;;;;;;687506;28;1374;-92
2022/07/01 00:44:05;;;;;;;;;;;31.40;48.40;;;;;;689053;28;1196;-91
2022/07/01 00:44:26;;;;;;;;;;;31.40;47.90;;;;;;688473;28;1327;-89
2022/07/01 00:44:46;;;;;;;;;;;31.40;48.30;;;;;;686649;28;1308;-88
2022/07/01 00:46:20;;;;;;;;;;;31.50;48.70;;;;;;689138;28;719;-89
2022/07/01 00:46:41;;;;;;;;;;;31.50;48.70;;;;;;686197;28;1220;-92
2022/07/01 00:47:03;;;;;;;;;;;31.50;48.80;;;;;;688191;28;1161;-91
2022/07/01 00:47:24;;;;;;;;;;;31.60;48.90;;;;;;686241;28;1189;-91
2022/07/01 00:47:44;;;;;;;;;;;31.50;48.60;;;;;;686592;28;994;-89
2022/07/01 00:48:06;;;;;;;;;;;31.60;47.60;;;;;;686575;28;1320;-91
2022/07/01 00:48:27;;;;;;;;;;;31.60;47.70;;;;;;683740;29;1108;-87
2022/07/01 00:48:47;;;;;;;;;;;31.60;48.40;;;;;;683778;29;1212;-91
2022/07/01 00:49:08;;;;;;;;;;;31.60;48.20;;;;;;684017;29;1184;-89
2022/07/01 00:49:29;;;;;;;;;;;31.70;48.20;;;;;;683907;29;994;-89
2022/07/01 00:49:49;;;;;;;;;;;31.70;48.20;;;;;;681400;29;1362;-89
2022/07/01 00:50:11;;;;;;;;;;;31.60;47.80;;;;;;681514;29;1240;-85
2022/07/01 00:50:32;;;;;;;;;;;31.70;47.90;;;;;;683712;29;1194;-91
2022/07/01 00:50:53;;;;;;;;;;;31.70;48.30;;;;;;684022;28;1961;-93
2022/07/01 00:51:13;;;;;;;;;;;31.70;47.90;;;;;;683759;28;1378;-91
2022/07/01 00:51:35;;;;;;;;;;;31.70;48.00;;;;;;683807;28;1315;-87
2022/07/01 00:51:56;;;;;;;;;;;31.70;48.20;;;;;;684275;29;842;-90
2022/07/01 00:52:16;;;;;;;;;;;31.70;47.70;;;;;;683816;29;858;-89
2022/07/01 00:52:38;;;;;;;;;;;31.70;47.80;;;;;;681572;29;1267;-90
2022/07/01 00:52:58;;;;;;;;;;;31.70;47.40;;;;;;681805;29;1326;-89
2022/07/01 00:53:19;;;;;;;;;;;31.70;47.40;;;;;;682665;29;1275;-85
2022/07/01 00:53:40;;;;;;;;;;;31.70;47.30;;;;;;686060;28;1157;-89
2022/07/01 00:54:01;;;;;;;;;;;31.70;47.20;;;;;;685890;28;1188;-87
2022/07/01 00:54:22;;;;;;;;;;;31.70;46.90;;;;;;686115;28;1312;-86
2022/07/01 00:54:43;;;;;;;;;;;31.70;47.00;;;;;;689358;28;1401;-87
2022/07/01 00:55:05;;;;;;;;;;;31.70;46.90;;;;;;692079;28;1283;-86
2022/07/01 00:55:25;;;;;;;;;;;31.70;46.70;;;;;;691241;28;1340;-90
2022/07/01 00:55:46;;;;;;;;;;;31.80;47.80;;;;;;691813;28;1272;-93
2022/07/01 00:56:06;;;;;;;;;;;31.80;47.30;;;;;;688642;28;1338;-91
2022/07/01 00:56:27;;;;;;;;;;;31.70;47.40;;;;;;684528;29;1278;-89
2022/07/01 00:56:48;;;;;;;;;;;31.70;47.10;;;;;;681203;29;1292;-87
2022/07/01 00:57:09;;;;;;;;;;;31.70;47.20;;;;;;684114;29;1371;-89
2022/07/01 00:57:30;;;;;;;;;;;31.80;47.10;;;;;;687169;28;1252;-87
2022/07/01 00:57:51;;;;;;;;;;;31.70;47.00;;;;;;689075;28;1017;-87
2022/07/01 00:58:12;;;;;;;;;;;31.70;47.40;;;;;;685479;28;1606;-84
2022/07/01 00:58:32;;;;;;;;;;;31.80;47.30;;;;;;686625;28;1238;-85
2022/07/01 00:58:54;;;;;;;;;;;31.80;47.70;;;;;;685303;28;1366;-85
2022/07/01 00:59:15;;;;;;;;;;;31.80;46.70;;;;;;683185;28;1264;-91
2022/07/01 00:59:39;;;;;;;;;;;31.80;47.90;;;;;;678642;29;1238;-89
2022/07/01 01:00:01;;;;;;;;;;;31.70;46.80;;;;;;680606;29;1269;-87
2022/07/01 01:00:23;;;;;;;;;;;31.70;46.60;;;;;;679565;29;1393;-85
2022/07/01 01:00:44;;;;;;;;;;;31.70;47.10;;;;;;681892;29;1308;-85
2022/07/01 01:01:05;;;;;;;;;;;31.80;47.40;;;;;;684448;29;884;-92
2022/07/01 01:01:25;;;;;;;;;;;31.80;47.20;;;;;;684500;29;1123;-91
2022/07/01 01:01:46;;;;;;;;;;;31.80;47.20;;;;;;686007;29;1380;-91
2022/07/01 01:02:07;;;;;;;;;;;31.80;47.10;;;;;;683727;29;1274;-87
2022/07/01 01:02:28;;;;;;;;;;;31.80;46.90;;;;;;685726;28;1025;-85
2022/07/01 01:02:49;;;;;;;;;;;31.80;46.80;;;;;;686001;29;1048;-93
2022/07/01 01:03:11;;;;;;;;;;;31.80;46.80;;;;;;685789;28;1282;-91
2022/07/01 01:03:31;;;;;;;;;;;31.80;46.90;;;;;;685615;28;1225;-86
2022/07/01 01:03:52;;;;;;;;;;;31.80;46.60;;;;;;681614;29;1216;-84
2022/07/01 01:04:12;;;;;;;;;;;31.80;46.40;;;;;;681378;29;1317;-84
2022/07/01 01:04:33;;;;;;;;;;;31.80;47.10;;;;;;680634;29;1341;-85
2022/07/01 01:04:54;;;;;;;;;;;31.80;46.60;;;;;;680021;29;1344;-84
2022/07/01 01:05:15;;;;;;;;;;;31.80;46.60;;;;;;684095;29;1247;-87
2022/07/01 01:05:35;;;;;;;;;;;31.80;46.50;;;;;;680841;29;1304;-91
2022/07/01 01:05:57;;;;;;;;;;;31.80;46.70;;;;;;686284;28;1282;-93
2022/07/01 01:06:17;;;;;;;;;;;31.80;46.30;;;;;;688380;28;1297;-85
2022/07/01 01:06:38;;;;;;;;;;;31.80;46.70;;;;;;689203;28;1221;-85
2022/07/01 01:07:00;;;;;;;;;;;31.80;46.60;;;;;;693945;28;1213;-90
2022/07/01 01:07:21;;;;;;;;;;;31.80;46.40;;;;;;693273;28;1171;-93
2022/07/01 01:07:41;;;;;;;;;;;31.80;47.00;;;;;;688737;28;1315;-85
2022/07/01 01:08:02;;;;;;;;;;;31.80;46.40;;;;;;688902;28;1416;-89
2022/07/01 01:08:23;;;;;;;;;;;31.80;46.00;;;;;;685679;28;1264;-86
2022/07/01 01:08:45;;;;;;;;;;;31.80;47.50;;;;;;686563;28;1244;-89
2022/07/01 01:09:07;;;;;;;;;;;31.80;46.10;;;;;;688536;28;1350;-93
2022/07/01 01:09:28;;;;;;;;;;;31.80;45.90;;;;;;686694;28;1283;-87
2022/07/01 01:09:48;;;;;;;;;;;31.80;46.70;;;;;;690413;28;1307;-89
2022/07/01 01:10:09;;;;;;;;;;;31.70;46.80;;;;;;688521;28;1089;-90
2022/07/01 01:10:30;;;;;;;;;;;31.70;46.50;;;;;;687802;28;1231;-90
2022/07/01 01:10:51;;;;;;;;;;;31.80;46.20;;;;;;685674;29;1887;-90
2022/07/01 01:11:13;;;;;;;;;;;31.10;45.50;;;;;;684691;29;1362;-93
2022/07/01 01:11:34;;;;;;;;;;;31.80;45.90;;;;;;683627;28;1332;-91
2022/07/01 01:11:55;;;;;;;;;;;31.80;46.00;;;;;;683539;29;1205;-90
2022/07/01 01:12:16;;;;;;;;;;;31.80;46.10;;;;;;681319;29;1317;-92
2022/07/01 01:12:36;;;;;;;;;;;31.80;46.90;;;;;;683856;29;1156;-93
2022/07/01 01:12:57;;;;;;;;;;;31.80;46.80;;;;;;681883;29;1212;-91
2022/07/01 01:13:18;;;;;;;;;;;31.80;46.40;;;;;;680985;29;1278;-93
2022/07/01 01:13:38;;;;;;;;;;;31.80;46.30;;;;;;684294;28;1158;-93
2022/07/01 01:13:59;;;;;;;;;;;31.80;47.60;;;;;;684179;28;1386;-92
2022/07/01 01:14:21;;;;;;;;;;;31.80;46.80;;;;;;682699;29;1169;-92
2022/07/01 01:14:48;;;;;;;;;;;31.80;47.30;;;;;;684456;29;1240;-92
2022/07/01 01:15:08;;;;;;;;;;;31.80;46.10;;;;;;686509;28;1192;-87
2022/07/01 01:15:29;;;;;;;;;;;31.80;46.10;;;;;;685353;28;1241;-89
2022/07/01 01:15:50;;;;;;;;;;;30.90;46.40;;;;;;685397;29;1276;-91
2022/07/01 01:16:18;;;;;;;;;;;31.80;46.10;;;;;;686159;28;1241;-86
2022/07/01 01:16:38;;;;;;;;;;;31.80;46.10;;;;;;687531;28;1110;-89
2022/07/01 01:16:59;;;;;;;;;;;31.90;46.20;;;;;;686562;28;1635;-84
2022/07/01 01:17:21;;;;;;;;;;;31.80;46.10;;;;;;687344;28;1252;-87
2022/07/01 01:17:42;;;;;;;;;;;31.80;46.00;;;;;;683177;29;1252;-87
2022/07/01 01:18:03;;;;;;;;;;;31.80;46.60;;;;;;681839;29;1401;-86
2022/07/01 01:18:23;;;;;;;;;;;31.80;46.00;;;;;;683702;28;1304;-89
2022/07/01 01:18:44;;;;;;;;;;;31.80;45.90;;;;;;684319;28;1160;-87
2022/07/01 01:19:05;;;;;;;;;;;31.90;46.20;;;;;;686280;28;1095;-88
2022/07/01 01:19:26;;;;;;;;;;;31.90;46.60;;;;;;685307;28;1255;-88
2022/07/01 01:19:46;;;;;;;;;;;31.80;46.40;;;;;;680842;29;1334;-93
2022/07/01 01:20:07;;;;;;;;;;;31.90;46.40;;;;;;681267;29;1181;-88
2022/07/01 01:20:32;;;;;;;;;;;31.90;46.00;;;;;;683612;29;1548;-88
2022/07/01 01:20:53;;;;;;;;;;;31.90;46.00;;;;;;684419;28;1316;-95
2022/07/01 01:21:14;;;;;;;;;;;31.90;46.00;;;;;;683551;28;1255;-90
2022/07/01 01:21:35;;;;;;;;;;;31.80;45.90;;;;;;684515;28;862;-89
2022/07/01 01:22:02;;;;;;;;;;;31.80;46.00;;;;;;684342;28;1368;-92
2022/07/01 01:22:23;;;;;;;;;;;31.80;46.00;;;;;;687305;28;1308;-88
2022/07/01 01:22:44;;;;;;;;;;;31.80;46.00;;;;;;686124;28;1220;-89
2022/07/01 01:23:05;;;;;;;;;;;31.80;45.80;;;;;;686090;28;764;-89
2022/07/01 01:23:25;;;;;;;;;;;31.90;46.30;;;;;;685935;28;826;-82
2022/07/01 01:23:46;;;;;;;;;;;31.80;45.80;;;;;;687329;28;934;-94
2022/07/01 01:24:07;;;;;;;;;;;31.90;45.80;;;;;;688872;28;1387;-94
2022/07/01 01:24:27;;;;;;;;;;;31.80;45.70;;;;;;688831;28;1288;-87
2022/07/01 01:24:48;;;;;;;;;;;31.90;45.90;;;;;;691139;28;1184;-82
2022/07/01 01:25:09;;;;;;;;;;;31.80;45.80;;;;;;691557;28;922;-90
2022/07/01 01:25:30;;;;;;;;;;;31.80;46.10;;;;;;691294;28;870;-83
2022/07/01 01:25:51;;;;;;;;;;;31.90;45.90;;;;;;687990;28;1450;-92
2022/07/01 01:26:20;;;;;;;;;;;31.80;45.80;;;;;;685920;28;815;-90
2022/07/01 01:26:41;;;;;;;;;;;31.80;45.80;;;;;;687601;28;1311;-87
2022/07/01 01:27:02;;;;;;;;;;;31.90;45.90;;;;;;688621;28;791;-90
2022/07/01 01:27:23;;;;;;;;;;;31.80;45.90;;;;;;688587;28;1397;-87
2022/07/01 01:27:44;;;;;;;;;;;31.80;47.30;;;;;;690381;28;819;-89
2022/07/01 01:28:04;;;;;;;;;;;31.80;46.20;;;;;;688405;28;1518;-88
2022/07/01 01:28:26;;;;;;;;;;;31.80;46.30;;;;;;688200;28;1305;-88
2022/07/01 01:28:47;;;;;;;;;;;31.80;46.80;;;;;;685862;28;1366;-89
2022/07/01 01:29:08;;;;;;;;;;;31.80;47.20;;;;;;685482;28;1220;-90
2022/07/01 01:29:28;;;;;;;;;;;31.80;46.30;;;;;;683112;29;1299;-87
2022/07/01 01:29:49;;;;;;;;;;;31.90;46.30;;;;;;683753;28;1174;-88
2022/07/01 01:30:14;;;;;;;;;;;31.80;47.90;;;;;;685831;28;1242;-88
2022/07/01 01:30:35;;;;;;;;;;;31.80;46.00;;;;;;684251;28;1326;-86
2022/07/01 01:30:56;;;;;;;;;;;31.90;46.80;;;;;;683109;28;1890;-88
2022/07/01 01:31:17;;;;;;;;;;;31.70;47.40;;;;;;680541;28;1235;-88
2022/07/01 01:31:38;;;;;;;;;;;31.80;46.70;;;;;;681794;29;866;-92
2022/07/01 01:31:58;;;;;;;;;;;31.80;47.00;;;;;;683063;28;1497;-88
2022/07/01 01:32:19;;;;;;;;;;;31.80;46.70;;;;;;683120;28;1203;-88
2022/07/01 01:32:41;;;;;;;;;;;31.90;46.50;;;;;;680773;29;1832;-87
2022/07/01 01:33:02;;;;;;;;;;;31.80;46.20;;;;;;681082;29;1206;-89
2022/07/01 01:33:22;;;;;;;;;;;31.90;48.00;;;;;;683131;28;1183;-88
2022/07/01 01:33:43;;;;;;;;;;;31.90;46.50;;;;;;683232;29;1334;-91
2022/07/01 01:34:04;;;;;;;;;;;31.80;46.50;;;;;;683566;28;1668;-87
2022/07/01 01:34:25;;;;;;;;;;;31.80;46.70;;;;;;685703;28;1586;-87
2022/07/01 01:34:45;;;;;;;;;;;31.80;46.50;;;;;;686265;28;1323;-90
2022/07/01 01:35:07;;;;;;;;;;;31.80;46.80;;;;;;688275;28;1219;-88
2022/07/01 01:35:28;;;;;;;;;;;31.80;46.20;;;;;;685818;28;1127;-90
2022/07/01 01:35:48;;;;;;;;;;;31.80;46.20;;;;;;685691;28;1442;-89
2022/07/01 01:36:09;;;;;;;;;;;31.80;46.00;;;;;;685326;28;1718;-89
2022/07/01 01:36:30;;;;;;;;;;;31.80;47.80;;;;;;685364;28;1451;-92
2022/07/01 01:36:51;;;;;;;;;;;31.80;47.30;;;;;;684425;28;1662;-94
2022/07/01 01:37:12;;;;;;;;;;;31.80;46.90;;;;;;689181;28;1654;-92
2022/07/01 01:37:32;;;;;;;;;;;31.80;46.60;;;;;;691740;28;1440;-93
2022/07/01 01:37:53;;;;;;;;;;;31.80;46.60;;;;;;692100;28;1639;-95
2022/07/01 01:38:13;;;;;;;;;;;31.80;46.20;;;;;;689530;28;1616;-90
2022/07/01 01:38:34;;;;;;;;;;;31.80;46.50;;;;;;689011;28;799;-94
2022/07/01 01:38:58;;;;;;;;;;;31.80;46.20;;;;;;686453;28;1110;-93
2022/07/01 01:39:19;;;;;;;;;;;31.80;46.20;;;;;;688751;28;1703;-94
2022/07/01 01:39:40;;;;;;;;;;;31.80;46.30;;;;;;689329;28;1357;-88
2022/07/01 01:40:01;;;;;;;;;;;31.80;46.50;;;;;;685856;28;1597;-92
2022/07/01 01:40:22;;;;;;;;;;;31.80;46.30;;;;;;685952;28;1205;-94
2022/07/01 01:40:43;;;;;;;;;;;31.80;46.80;;;;;;687033;28;1668;-95
2022/07/01 01:41:04;;;;;;;;;;;31.80;46.20;;;;;;688731;28;1302;-88
2022/07/01 01:41:24;;;;;;;;;;;31.80;46.20;;;;;;688700;28;861;-93
2022/07/01 01:41:45;;;;;;;;;;;31.80;46.10;;;;;;688622;28;947;-94
2022/07/01 01:42:06;;;;;;;;;;;31.80;46.10;;;;;;688749;28;1162;-93
2022/07/01 01:42:27;;;;;;;;;;;31.80;46.10;;;;;;688919;28;913;-92
2022/07/01 01:42:47;;;;;;;;;;;31.80;46.60;;;;;;688455;28;1491;-93
2022/07/01 01:43:08;;;;;;;;;;;31.80;46.30;;;;;;688787;28;1283;-94
2022/07/01 01:43:29;;;;;;;;;;;31.70;46.10;;;;;;689016;28;806;-95
2022/07/01 01:43:49;;;;;;;;;;;31.80;46.10;;;;;;689004;28;1236;-86
2022/07/01 01:44:10;;;;;;;;;;;31.70;46.10;;;;;;691787;28;1211;-94
2022/07/01 01:44:34;;;;;;;;;;;31.70;46.10;;;;;;691391;28;806;-92
2022/07/01 01:44:54;;;;;;;;;;;31.70;46.10;;;;;;690696;28;917;-92
2022/07/01 01:45:15;;;;;;;;;;;31.70;46.20;;;;;;688879;28;854;-92
2022/07/01 01:45:35;;;;;;;;;;;31.70;45.90;;;;;;691483;28;1294;-86
2022/07/01 01:45:56;;;;;;;;;;;31.70;45.90;;;;;;690866;28;1721;-91
2022/07/01 01:46:16;;;;;;;;;;;31.70;46.10;;;;;;691706;28;1232;-93
2022/07/01 01:46:38;;;;;;;;;;;31.70;46.20;;;;;;688791;28;1236;-87
2022/07/01 01:46:58;;;;;;;;;;;31.70;46.50;;;;;;688655;28;1264;-92
2022/07/01 01:47:19;;;;;;;;;;;31.70;46.00;;;;;;688352;28;1553;-91
2022/07/01 01:47:40;;;;;;;;;;;31.70;46.70;;;;;;687013;28;886;-91
2022/07/01 01:48:00;;;;;;;;;;;31.70;47.00;;;;;;688973;28;1365;-93
2022/07/01 01:48:21;;;;;;;;;;;31.70;46.50;;;;;;686426;28;1647;-86
2022/07/01 01:48:41;;;;;;;;;;;31.70;47.70;;;;;;689684;28;962;-93
2022/07/01 01:49:02;;;;;;;;;;;31.70;47.00;;;;;;692639;28;1247;-83
2022/07/01 01:49:23;;;;;;;;;;;31.60;46.50;;;;;;691164;28;1192;-81
2022/07/01 01:49:43;;;;;;;;;;;31.60;46.70;;;;;;691128;28;1271;-82
2022/07/01 01:50:08;;;;;;;;;;;31.60;46.50;;;;;;688957;28;811;-81
2022/07/01 01:50:29;;;;;;;;;;;31.70;46.30;;;;;;688654;28;1275;-84
2022/07/01 01:50:49;;;;;;;;;;;31.60;47.00;;;;;;688487;28;1228;-88
2022/07/01 01:51:10;;;;;;;;;;;31.60;46.90;;;;;;689820;28;1902;-83
2022/07/01 01:51:32;;;;;;;;;;;31.60;47.20;;;;;;691503;28;1271;-89
2022/07/01 01:51:53;;;;;;;;;;;31.60;46.10;;;;;;688502;28;1710;-83
2022/07/01 01:52:13;;;;;;;;;;;31.60;46.40;;;;;;688347;28;1302;-85
2022/07/01 01:52:34;;;;;;;;;;;31.60;46.60;;;;;;688561;28;1224;-82
2022/07/01 01:52:54;;;;;;;;;;;31.60;47.40;;;;;;688377;28;1411;-81
2022/07/01 01:53:15;;;;;;;;;;;31.60;46.40;;;;;;688011;28;855;-84
2022/07/01 01:53:35;;;;;;;;;;;31.60;46.60;;;;;;684768;28;1544;-86
2022/07/01 01:53:56;;;;;;;;;;;31.50;46.30;;;;;;685314;28;1484;-82
2022/07/01 01:54:16;;;;;;;;;;;31.50;46.30;;;;;;687984;28;918;-85
2022/07/01 01:54:37;;;;;;;;;;;31.50;46.30;;;;;;685899;28;1203;-91
2022/07/01 01:54:58;;;;;;;;;;;31.50;46.30;;;;;;688140;28;1416;-85
2022/07/01 01:55:19;;;;;;;;;;;30.00;45.20;;;;;;688134;28;1428;-90
2022/07/01 01:55:39;;;;;;;;;;;31.50;46.40;;;;;;687955;28;832;-85
2022/07/01 01:56:00;;;;;;;;;;;31.50;46.60;;;;;;690899;28;1032;-81
2022/07/01 01:56:21;;;;;;;;;;;31.50;46.40;;;;;;691057;28;989;-84
2022/07/01 01:56:41;;;;;;;;;;;31.40;46.30;;;;;;690602;28;1085;-84
2022/07/01 01:57:04;;;;;;;;;;;31.40;46.90;;;;;;690624;28;1462;-86
2022/07/01 01:57:25;;;;;;;;;;;31.40;46.50;;;;;;688581;28;1242;-83
2022/07/01 01:57:45;;;;;;;;;;;31.40;46.60;;;;;;688569;28;989;-86
2022/07/01 01:58:06;;;;;;;;;;;31.40;46.50;;;;;;685486;29;1130;-93
2022/07/01 01:58:28;;;;;;;;;;;31.40;46.80;;;;;;683348;29;1247;-94
2022/07/01 01:58:49;;;;;;;;;;;31.40;46.50;;;;;;683440;29;1392;-92
2022/07/01 01:59:12;;;;;;;;;;;31.40;46.90;;;;;;683266;28;1369;-93
2022/07/01 01:59:33;;;;;;;;;;;31.40;47.10;;;;;;686811;28;1301;-89
2022/07/01 01:59:53;;;;;;;;;;;31.40;47.60;;;;;;686784;28;807;-92
2022/07/01 02:00:14;;;;;;;;;;;31.40;47.60;;;;;;688754;28;1217;-94
2022/07/01 02:00:34;;;;;;;;;;;31.40;47.60;;;;;;688601;28;863;-89
2022/07/01 02:00:55;;;;;;;;;;;31.40;47.30;;;;;;685856;28;1138;-91
2022/07/01 02:01:17;;;;;;;;;;;31.30;47.30;;;;;;686000;28;1397;-94
2022/07/01 02:01:42;;;;;;;;;;;31.30;46.90;;;;;;686382;28;882;-95
2022/07/01 02:02:03;;;;;;;;;;;31.40;47.50;;;;;;683932;28;1466;-92
2022/07/01 02:02:23;;;;;;;;;;;31.40;47.80;;;;;;686004;28;1224;-95
2022/07/01 02:02:47;;;;;;;;;;;31.40;47.40;;;;;;686973;28;1404;-90
2022/07/01 02:03:07;;;;;;;;;;;31.40;47.60;;;;;;684692;28;1243;-90
2022/07/01 02:03:28;;;;;;;;;;;31.30;47.80;;;;;;683237;28;1255;-92
2022/07/01 02:03:51;;;;;;;;;;;31.40;47.70;;;;;;686425;28;1382;-92
2022/07/01 02:04:11;;;;;;;;;;;31.40;47.20;;;;;;687779;28;1304;-92
2022/07/01 02:04:32;;;;;;;;;;;31.40;47.50;;;;;;685942;28;1552;-93
2022/07/01 02:05:10;;;;;;;;;;;31.40;47.60;;;;;;688914;28;845;-82
2022/07/01 02:05:35;;;;;;;;;;;31.30;47.00;;;;;;692046;28;1016;-83
2022/07/01 02:05:56;;;;;;;;;;;31.40;47.10;;;;;;688876;28;1392;-93
2022/07/01 02:06:18;;;;;;;;;;;31.30;47.70;;;;;;689136;28;1397;-90
2022/07/01 02:06:40;;;;;;;;;;;31.30;47.50;;;;;;691640;28;980;-94
2022/07/01 02:07:01;;;;;;;;;;;31.30;47.30;;;;;;691753;28;841;-90
2022/07/01 02:07:22;;;;;;;;;;;31.40;47.50;;;;;;691750;28;1016;-88
2022/07/01 02:07:45;;;;;;;;;;;31.30;47.30;;;;;;688101;28;1315;-88
2022/07/01 02:08:10;;;;;;;;;;;31.30;47.50;;;;;;688889;28;839;-88